Time;durP1;ratioP1;P1;durP2;ratioP2;P2;SDS_P1;SDS_P2;PMS_P1;PMS_P2;Temp;Humidity;BMP_temperature;BMP_pressure;BME280_temperature;BME280_humidity;BME280_pressure;Samples;Min_cycle;Max_cycle;Signal;HPM_P1;HPM_P2
2023/10/03 00:02:18;;;;;;;;;;;;;;;16.26;100.00;101043.88;5029502;28;19962;-73
2023/10/03 00:04:43;;;;;;;;;;;;;;;16.29;100.00;101043.59;5026780;28;20012;-74
2023/10/03 00:07:09;;;;;;;;;;;;;;;16.46;100.00;101031.06;5033324;28;19929;-73
2023/10/03 00:09:34;;;;;;;;;;;;;;;16.53;100.00;101033.16;5031253;28;19921;-74
2023/10/03 00:11:59;;;;;;;;;;;;;;;16.57;100.00;101019.16;5029992;28;19957;-74
2023/10/03 00:14:26;;;;;;;;;;;;;;;16.64;100.00;101020.25;5029466;28;20174;-74
2023/10/03 00:16:51;;;;;;;;;;;;;;;16.75;100.00;101011.00;5032781;28;19929;-74
2023/10/03 00:19:17;;;;;;;;;;;;;;;16.85;100.00;101013.63;5032191;28;20413;-75
2023/10/03 00:21:43;;;;;;;;;;;;;;;16.91;100.00;101002.16;5031166;28;22005;-74
2023/10/03 00:24:08;;;;;;;;;;;;;;;16.99;100.00;101004.13;5031001;28;19962;-74
2023/10/03 00:26:33;;;;;;;;;;;;;;;17.00;100.00;100999.53;5032570;28;19929;-75
2023/10/03 00:28:59;;;;;;;;;;;;;;;16.97;100.00;100995.28;5033476;28;19947;-74
2023/10/03 00:31:24;;;;;;;;;;;;;;;17.01;100.00;100995.81;5030677;28;19925;-75
2023/10/03 00:33:49;;;;;;;;;;;;;;;17.05;100.00;100998.06;5033072;28;20460;-74
2023/10/03 00:36:25;;;;;;;;;;;;;;;17.14;100.00;100984.53;5032360;28;20383;-75
2023/10/03 00:38:50;;;;;;;;;;;;;;;17.09;100.00;100980.44;5028138;28;20391;-75
2023/10/03 00:41:17;;;;;;;;;;;;;;;17.21;100.00;100978.34;5014139;28;19924;-76
2023/10/03 00:43:51;;;;;;;;;;;;;;;17.21;100.00;100974.75;5032549;28;19921;-74
2023/10/03 00:46:18;;;;;;;;;;;;;;;17.05;100.00;100979.09;5029579;28;19909;-75
2023/10/03 00:48:43;;;;;;;;;;;;;;;17.07;100.00;100968.06;5029351;28;19924;-75
2023/10/03 00:51:09;;;;;;;;;;;;;;;17.04;100.00;100966.53;5033303;28;19975;-74
2023/10/03 00:53:35;;;;;;;;;;;;;;;17.02;100.00;100949.56;5028732;28;19928;-75
2023/10/03 00:56:02;;;;;;;;;;;;;;;17.08;100.00;100943.47;5030693;28;19928;-75
2023/10/03 00:58:30;;;;;;;;;;;;;;;17.06;100.00;100931.97;5030268;28;19921;-74
2023/10/03 01:00:57;;;;;;;;;;;;;;;16.97;100.00;100926.63;5029620;28;20350;-75
2023/10/03 01:03:32;;;;;;;;;;;;;;;16.94;100.00;100920.50;5032130;28;19990;-75
2023/10/03 01:05:58;;;;;;;;;;;;;;;16.91;100.00;100915.38;5029114;28;20502;-75
2023/10/03 01:08:23;;;;;;;;;;;;;;;16.90;100.00;100910.09;5027236;28;19921;-76
2023/10/03 01:10:49;;;;;;;;;;;;;;;16.97;100.00;100894.94;5034575;28;19925;-75
2023/10/03 01:13:14;;;;;;;;;;;;;;;16.99;100.00;100894.75;5030052;28;20021;-75
2023/10/03 01:15:39;;;;;;;;;;;;;;;16.99;100.00;100889.34;5015022;28;20099;-75
2023/10/03 01:18:06;;;;;;;;;;;;;;;17.00;100.00;100889.19;5031613;28;19921;-74
2023/10/03 01:20:40;;;;;;;;;;;;;;;16.92;100.00;100881.84;5030183;28;19925;-74
2023/10/03 01:23:06;;;;;;;;;;;;;;;16.94;100.00;100874.41;5030296;28;20007;-75
2023/10/03 01:25:34;;;;;;;;;;;;;;;16.92;100.00;100872.84;5018387;28;19921;-74
2023/10/03 01:28:00;;;;;;;;;;;;;;;17.01;100.00;100861.06;5025461;28;19925;-75
2023/10/03 01:30:26;;;;;;;;;;;;;;;17.03;100.00;100855.47;5030335;28;19970;-75
2023/10/03 01:32:53;;;;;;;;;;;;;;;17.01;100.00;100858.34;5013992;28;19999;-74
2023/10/03 01:35:18;;;;;;;;;;;;;;;17.04;100.00;100843.59;5014606;28;20379;-74
2023/10/03 01:37:45;;;;;;;;;;;;;;;17.03;100.00;100844.63;5029709;28;19968;-74
2023/10/03 01:40:13;;;;;;;;;;;;;;;17.06;100.00;100839.75;5031132;28;20673;-75
2023/10/03 01:42:45;;;;;;;;;;;;;;;17.24;100.00;100839.63;5026471;28;19921;-76
2023/10/03 01:45:11;;;;;;;;;;;;;;;17.23;100.00;100837.09;5031542;28;19944;-76
2023/10/03 01:47:39;;;;;;;;;;;;;;;17.36;100.00;100836.63;5013048;28;19916;-75
2023/10/03 01:50:11;;;;;;;;;;;;;;;17.37;100.00;100832.91;5030153;28;19964;-74
2023/10/03 01:52:37;;;;;;;;;;;;;;;17.38;100.00;100843.56;5030214;28;19968;-77
2023/10/03 01:55:03;;;;;;;;;;;;;;;17.32;100.00;100835.25;5032168;28;20028;-75
2023/10/03 01:57:28;;;;;;;;;;;;;;;17.38;100.00;100830.00;5029820;28;19924;-74
2023/10/03 01:59:55;;;;;;;;;;;;;;;17.38;100.00;100816.44;5031659;28;21160;-75
2023/10/03 02:02:20;;;;;;;;;;;;;;;17.28;100.00;100806.75;5010132;28;19936;-75
2023/10/03 02:04:45;;;;;;;;;;;;;;;17.30;100.00;100815.56;5028567;28;20363;-74
2023/10/03 02:07:11;;;;;;;;;;;;;;;17.06;100.00;100818.03;5012722;28;19928;-75
2023/10/03 02:09:37;;;;;;;;;;;;;;;17.17;100.00;100824.16;5026404;28;20310;-76
2023/10/03 02:12:02;;;;;;;;;;;;;;;17.13;100.00;100812.81;5031007;28;19968;-75
2023/10/03 02:14:29;;;;;;;;;;;;;;;17.18;100.00;100817.72;5027928;28;20015;-75
2023/10/03 02:16:54;;;;;;;;;;;;;;;17.34;100.00;100804.25;5029027;28;20271;-76
2023/10/03 02:19:20;;;;;;;;;;;;;;;17.35;100.00;100803.19;5030616;28;19921;-75
2023/10/03 02:21:46;;;;;;;;;;;;;;;17.45;100.00;100799.50;5027373;28;19917;-76
2023/10/03 02:24:13;;;;;;;;;;;;;;;17.49;100.00;100799.00;5028405;28;19925;-76
2023/10/03 02:26:39;;;;;;;;;;;;;;;17.59;100.00;100798.00;5031288;28;19920;-74
2023/10/03 02:29:04;;;;;;;;;;;;;;;17.58;100.00;100791.75;5028496;28;19921;-77
2023/10/03 02:31:29;;;;;;;;;;;;;;;17.75;100.00;100792.59;5029391;28;19928;-75
2023/10/03 02:33:55;;;;;;;;;;;;;;;17.71;100.00;100779.53;5030964;28;19923;-76
2023/10/03 02:36:21;;;;;;;;;;;;;;;17.85;100.00;100778.88;5030771;28;19924;-75
2023/10/03 02:38:47;;;;;;;;;;;;;;;17.90;100.00;100779.19;5028805;28;19947;-74
2023/10/03 02:41:15;;;;;;;;;;;;;;;18.01;100.00;100774.47;5011677;28;20393;-76
2023/10/03 02:43:43;;;;;;;;;;;;;;;18.16;100.00;100761.06;5029619;28;19921;-75
2023/10/03 02:46:11;;;;;;;;;;;;;;;18.26;100.00;100775.31;5032811;28;20428;-75
2023/10/03 02:48:36;;;;;;;;;;;;;;;18.36;100.00;100778.69;5032134;28;20036;-75
2023/10/03 02:51:02;;;;;;;;;;;;;;;18.41;100.00;100776.31;5031139;28;20023;-75
2023/10/03 02:53:27;;;;;;;;;;;;;;;18.37;100.00;100785.00;5032415;28;19974;-76
2023/10/03 02:55:53;;;;;;;;;;;;;;;18.46;100.00;100781.22;5001734;28;19925;-74
2023/10/03 02:58:20;;;;;;;;;;;;;;;18.55;100.00;100779.31;5033079;28;20707;-75
2023/10/03 03:00:46;;;;;;;;;;;;;;;18.59;100.00;100767.94;5027755;28;19921;-77
2023/10/03 03:03:11;;;;;;;;;;;;;;;18.64;100.00;100783.72;5032045;28;19927;-74
2023/10/03 03:05:37;;;;;;;;;;;;;;;18.82;100.00;100786.22;5015758;28;19925;-75
2023/10/03 03:08:23;;;;;;;;;;;;;;;18.84;100.00;100786.03;5028869;28;19935;-73
2023/10/03 03:10:55;;;;;;;;;;;;;;;18.83;100.00;100782.47;5033201;28;20305;-74
2023/10/03 03:13:24;;;;;;;;;;;;;;;18.75;100.00;100779.78;5034673;28;19925;-75
2023/10/03 03:15:53;;;;;;;;;;;;;;;18.86;100.00;100782.13;5015176;28;19955;-73
2023/10/03 03:18:21;;;;;;;;;;;;;;;18.85;100.00;100777.72;5031487;28;19972;-75
2023/10/03 03:20:53;;;;;;;;;;;;;;;18.90;100.00;100777.19;5029470;28;19920;-73
2023/10/03 03:23:19;;;;;;;;;;;;;;;18.92;100.00;100777.03;5032635;28;19925;-72
2023/10/03 03:25:44;;;;;;;;;;;;;;;18.99;100.00;100776.16;5029000;28;20005;-73
2023/10/03 03:28:13;;;;;;;;;;;;;;;19.09;100.00;100785.97;5030438;28;20007;-74
2023/10/03 03:30:55;;;;;;;;;;;;;;;19.10;100.00;100777.66;5031234;28;19928;-74
2023/10/03 03:33:20;;;;;;;;;;;;;;;19.14;100.00;100776.28;5031666;28;20032;-76
2023/10/03 03:35:47;;;;;;;;;;;;;;;19.01;100.00;100767.81;5031960;28;19920;-74
2023/10/03 03:38:15;;;;;;;;;;;;;;;19.02;100.00;100767.66;5031169;28;20425;-75
2023/10/03 03:40:45;;;;;;;;;;;;;;;19.00;100.00;100769.69;5019815;28;19924;-74
2023/10/03 03:43:12;;;;;;;;;;;;;;;19.02;100.00;100764.94;5027430;28;19921;-73
2023/10/03 03:45:37;;;;;;;;;;;;;;;19.02;100.00;100764.94;5034274;28;19920;-73
2023/10/03 03:48:03;;;;;;;;;;;;;;;18.97;100.00;100761.03;5028916;28;19964;-74
2023/10/03 03:50:29;;;;;;;;;;;;;;;19.08;100.00;100762.50;5010346;28;19924;-74
2023/10/03 03:52:54;;;;;;;;;;;;;;;19.10;100.00;100763.19;5030856;28;19920;-75
2023/10/03 03:55:21;;;;;;;;;;;;;;;19.09;100.00;100767.78;5033713;28;19916;-72
2023/10/03 03:57:51;;;;;;;;;;;;;;;19.11;100.00;100773.03;5032968;28;19924;-75
2023/10/03 04:00:21;;;;;;;;;;;;;;;19.11;100.00;100764.88;5032382;28;19925;-72
2023/10/03 04:02:48;;;;;;;;;;;;;;;19.13;100.00;100771.00;5016121;28;20452;-72
2023/10/03 04:05:14;;;;;;;;;;;;;;;19.15;100.00;100777.97;5029147;28;19925;-73
2023/10/03 04:07:40;;;;;;;;;;;;;;;19.14;100.00;100775.41;5012449;28;19925;-74
2023/10/03 04:10:06;;;;;;;;;;;;;;;19.16;100.00;100782.38;5027320;28;19940;-74
2023/10/03 04:12:38;;;;;;;;;;;;;;;19.13;100.00;100785.47;5033288;28;20115;-74
2023/10/03 04:15:05;;;;;;;;;;;;;;;19.16;100.00;100781.53;5029106;28;20106;-72
2023/10/03 04:17:30;;;;;;;;;;;;;;;19.16;100.00;100785.09;5029143;28;19931;-72
2023/10/03 04:19:56;;;;;;;;;;;;;;;19.20;100.00;100793.75;5033513;28;20019;-74
2023/10/03 04:22:21;;;;;;;;;;;;;;;19.24;100.00;100792.38;5032833;28;20008;-72
2023/10/03 04:24:46;;;;;;;;;;;;;;;19.24;100.00;100791.50;5030460;28;19931;-72
2023/10/03 04:27:13;;;;;;;;;;;;;;;19.11;100.00;100786.63;5000136;28;19921;-72
2023/10/03 04:29:38;;;;;;;;;;;;;;;19.17;100.00;100802.28;5015097;28;20054;-72
2023/10/03 04:32:03;;;;;;;;;;;;;;;19.11;100.00;100806.56;5016091;28;20015;-73
2023/10/03 04:34:28;;;;;;;;;;;;;;;19.14;100.00;100808.94;5028571;28;19926;-74
2023/10/03 04:36:54;;;;;;;;;;;;;;;19.12;100.00;100812.84;5034744;28;19925;-72
2023/10/03 04:39:20;;;;;;;;;;;;;;;19.16;100.00;100815.03;5030608;28;19936;-73
2023/10/03 04:41:46;;;;;;;;;;;;;;;19.14;100.00;100822.53;5031634;28;19920;-75
2023/10/03 04:44:17;;;;;;;;;;;;;;;19.11;100.00;100822.88;5031775;28;19966;-73
2023/10/03 04:46:44;;;;;;;;;;;;;;;19.16;100.00;100828.66;5030050;28;21999;-73
2023/10/03 04:49:09;;;;;;;;;;;;;;;19.10;100.00;100826.63;5031603;28;19999;-72
2023/10/03 04:51:35;;;;;;;;;;;;;;;19.12;100.00;100829.16;5032654;28;19921;-75
2023/10/03 04:54:00;;;;;;;;;;;;;;;19.07;100.00;100829.69;5006690;28;19998;-74
2023/10/03 04:56:25;;;;;;;;;;;;;;;19.12;100.00;100826.44;5008500;28;19925;-74
2023/10/03 04:58:50;;;;;;;;;;;;;;;19.01;100.00;100849.44;5032354;28;19917;-77
2023/10/03 05:01:16;;;;;;;;;;;;;;;19.00;100.00;100856.75;5028955;28;19920;-74
2023/10/03 05:03:41;;;;;;;;;;;;;;;18.96;100.00;100858.13;5025872;28;20395;-75
2023/10/03 05:06:06;;;;;;;;;;;;;;;18.86;100.00;100862.88;5024605;28;20469;-72
2023/10/03 05:08:32;;;;;;;;;;;;;;;18.80;100.00;100856.25;5032087;28;19924;-73
2023/10/03 05:10:59;;;;;;;;;;;;;;;18.72;100.00;100857.13;5010182;28;19967;-74
2023/10/03 05:13:25;;;;;;;;;;;;;;;18.71;100.00;100862.72;5030542;28;20375;-73
2023/10/03 05:15:51;;;;;;;;;;;;;;;18.65;100.00;100860.72;5020486;28;20009;-77
2023/10/03 05:18:16;;;;;;;;;;;;;;;18.62;100.00;100852.91;5027042;28;20367;-72
2023/10/03 05:20:42;;;;;;;;;;;;;;;18.56;100.00;100863.44;5028105;28;19927;-74
2023/10/03 05:23:07;;;;;;;;;;;;;;;18.52;100.00;100881.13;5011683;28;20029;-74
2023/10/03 05:25:42;;;;;;;;;;;;;;;18.46;100.00;100879.06;5028539;28;20278;-74
2023/10/03 05:28:10;;;;;;;;;;;;;;;18.32;100.00;100891.47;5021059;28;19925;-73
2023/10/03 05:30:38;;;;;;;;;;;;;;;18.29;100.00;100889.09;5027633;28;20027;-72
2023/10/03 05:33:05;;;;;;;;;;;;;;;18.24;100.00;100907.81;5018198;28;19921;-71
2023/10/03 05:35:31;;;;;;;;;;;;;;;18.18;100.00;100897.59;5031128;28;19921;-74
2023/10/03 05:37:57;;;;;;;;;;;;;;;18.10;100.00;100888.41;5027713;28;20233;-75
2023/10/03 05:40:22;;;;;;;;;;;;;;;18.14;100.00;100880.78;5013712;28;20023;-70
2023/10/03 05:42:47;;;;;;;;;;;;;;;18.06;100.00;100875.34;5033763;28;20024;-71
2023/10/03 05:45:13;;;;;;;;;;;;;;;18.10;100.00;100868.56;5035468;28;19912;-72
2023/10/03 05:47:45;;;;;;;;;;;;;;;18.08;100.00;100878.75;5033472;28;20342;-74
2023/10/03 05:50:16;;;;;;;;;;;;;;;18.10;100.00;100880.25;5023229;28;20618;-76
2023/10/03 05:52:45;;;;;;;;;;;;;;;17.89;100.00;100861.69;5005298;28;19920;-75
2023/10/03 05:55:10;;;;;;;;;;;;;;;18.10;100.00;100898.44;5027561;28;19924;-73
2023/10/03 05:57:38;;;;;;;;;;;;;;;17.99;100.00;100911.31;5025228;28;19932;-74
2023/10/03 06:00:08;;;;;;;;;;;;;;;17.99;100.00;100900.44;5031420;28;19917;-73
2023/10/03 06:02:34;;;;;;;;;;;;;;;18.07;100.00;100901.50;5027854;28;19933;-72
2023/10/03 06:04:59;;;;;;;;;;;;;;;18.06;100.00;100892.47;5031523;28;19927;-72
2023/10/03 06:07:25;;;;;;;;;;;;;;;18.10;100.00;100904.72;5032219;28;19924;-75
2023/10/03 06:09:51;;;;;;;;;;;;;;;18.16;100.00;100895.03;5031391;28;19924;-75
2023/10/03 06:12:18;;;;;;;;;;;;;;;18.09;100.00;100894.03;5031042;28;20059;-75
2023/10/03 06:14:43;;;;;;;;;;;;;;;18.06;100.00;100894.34;5031177;28;20425;-76
2023/10/03 06:17:08;;;;;;;;;;;;;;;18.03;100.00;100900.13;5027068;28;19925;-74
2023/10/03 06:19:35;;;;;;;;;;;;;;;18.11;100.00;100906.41;5029434;28;19966;-73
2023/10/03 06:22:00;;;;;;;;;;;;;;;18.09;100.00;100913.03;5035064;28;19925;-72
2023/10/03 06:24:27;;;;;;;;;;;;;;;18.04;100.00;100913.53;5032081;28;19943;-75
2023/10/03 06:26:52;;;;;;;;;;;;;;;17.99;100.00;100919.47;5034243;28;20329;-76
2023/10/03 06:29:17;;;;;;;;;;;;;;;18.05;100.00;100911.66;5032725;28;19942;-71
2023/10/03 06:31:44;;;;;;;;;;;;;;;18.05;100.00;100920.66;5030382;28;19920;-75
2023/10/03 06:34:09;;;;;;;;;;;;;;;18.08;100.00;100912.19;5032271;28;20349;-73
2023/10/03 06:36:34;;;;;;;;;;;;;;;18.07;100.00;100928.66;5010240;28;19928;-73
2023/10/03 06:38:59;;;;;;;;;;;;;;;18.07;100.00;100940.34;5015935;28;19928;-73
2023/10/03 06:41:26;;;;;;;;;;;;;;;18.08;100.00;100935.78;5034364;28;20022;-74
2023/10/03 06:43:51;;;;;;;;;;;;;;;18.08;100.00;100933.06;5028714;28;19924;-75
2023/10/03 06:46:16;;;;;;;;;;;;;;;18.09;100.00;100938.31;5028075;28;19925;-73
2023/10/03 06:48:43;;;;;;;;;;;;;;;18.13;100.00;100939.69;5029109;28;19990;-74
2023/10/03 06:51:09;;;;;;;;;;;;;;;18.13;100.00;100947.84;5033582;28;20401;-76
2023/10/03 06:53:34;;;;;;;;;;;;;;;18.17;100.00;100952.97;5008292;28;20285;-75
2023/10/03 06:56:00;;;;;;;;;;;;;;;18.10;100.00;100950.91;5027621;28;20111;-73
2023/10/03 06:58:26;;;;;;;;;;;;;;;18.14;100.00;100952.28;5029557;28;19921;-75
2023/10/03 07:00:54;;;;;;;;;;;;;;;18.16;100.00;100949.38;5028091;28;20243;-73
2023/10/03 07:03:20;;;;;;;;;;;;;;;18.13;100.00;100957.88;5023319;28;20263;-73
2023/10/03 07:05:46;;;;;;;;;;;;;;;18.18;100.00;100955.50;5033198;28;20457;-70
2023/10/03 07:08:12;;;;;;;;;;;;;;;18.26;100.00;100962.84;5032320;28;19963;-74
2023/10/03 07:10:38;;;;;;;;;;;;;;;18.21;100.00;100976.91;5029831;28;19921;-75
2023/10/03 07:13:04;;;;;;;;;;;;;;;18.19;100.00;100969.94;5028786;28;19960;-74
2023/10/03 07:15:30;;;;;;;;;;;;;;;18.22;100.00;100973.16;5032083;28;19924;-74
2023/10/03 07:17:56;;;;;;;;;;;;;;;18.20;100.00;100987.94;5013307;28;20680;-75
2023/10/03 07:20:22;;;;;;;;;;;;;;;18.06;100.00;100976.69;5030527;28;20428;-75
2023/10/03 07:22:47;;;;;;;;;;;;;;;18.10;100.00;100977.22;5009387;28;19921;-73
2023/10/03 07:25:12;;;;;;;;;;;;;;;18.21;100.00;100993.19;5023083;28;20831;-73
2023/10/03 07:27:41;;;;;;;;;;;;;;;18.29;100.00;100982.38;5021269;28;19956;-74
2023/10/03 07:30:06;;;;;;;;;;;;;;;18.32;100.00;100981.16;5014637;28;19947;-75
2023/10/03 07:32:32;;;;;;;;;;;;;;;18.33;100.00;100973.88;5028105;28;19921;-74
2023/10/03 07:34:58;;;;;;;;;;;;;;;18.34;100.00;100983.72;5028284;28;20136;-74
2023/10/03 07:37:23;;;;;;;;;;;;;;;18.35;100.00;100989.00;5022873;28;20003;-76
2023/10/03 07:39:49;;;;;;;;;;;;;;;18.28;100.00;100982.50;5025941;28;20294;-75
2023/10/03 07:42:15;;;;;;;;;;;;;;;18.25;100.00;100982.88;5027432;28;19921;-73
2023/10/03 07:44:40;;;;;;;;;;;;;;;18.18;100.00;100987.25;5027853;28;19920;-74
2023/10/03 07:47:06;;;;;;;;;;;;;;;18.21;100.00;100987.78;5011847;28;20492;-71
2023/10/03 07:49:32;;;;;;;;;;;;;;;18.18;100.00;100998.13;5028985;28;20356;-75
2023/10/03 07:51:59;;;;;;;;;;;;;;;18.26;100.00;101007.16;5031983;28;19924;-73
2023/10/03 07:54:26;;;;;;;;;;;;;;;18.24;100.00;101005.63;5013978;28;20411;-72
2023/10/03 07:56:51;;;;;;;;;;;;;;;18.32;100.00;101012.94;5029905;28;19932;-73
2023/10/03 07:59:17;;;;;;;;;;;;;;;18.40;100.00;101013.81;5031327;28;19916;-74
2023/10/03 08:01:42;;;;;;;;;;;;;;;18.43;100.00;101023.47;5028603;28;20454;-74
2023/10/03 08:04:12;;;;;;;;;;;;;;;18.35;100.00;101031.63;5034148;28;20126;-74
2023/10/03 08:06:38;;;;;;;;;;;;;;;18.19;100.00;101046.03;5031624;28;19987;-75
2023/10/03 08:09:03;;;;;;;;;;;;;;;18.18;100.00;101058.75;5017885;28;20366;-74
2023/10/03 08:11:29;;;;;;;;;;;;;;;18.06;100.00;101041.91;5024860;28;19927;-74
2023/10/03 08:14:13;;;;;;;;;;;;;;;18.13;100.00;101044.81;5011343;28;19968;-74
2023/10/03 08:16:42;;;;;;;;;;;;;;;17.98;100.00;101058.16;5010634;28;19976;-75
2023/10/03 08:19:08;;;;;;;;;;;;;;;17.85;100.00;101072.19;5034027;28;20359;-73
2023/10/03 08:21:34;;;;;;;;;;;;;;;17.58;100.00;101084.91;5031358;28;19921;-72
2023/10/03 08:24:09;;;;;;;;;;;;;;;17.44;100.00;101105.34;5031547;28;19945;-70
2023/10/03 08:26:34;;;;;;;;;;;;;;;17.39;100.00;101097.66;5028104;28;20279;-75
2023/10/03 08:29:03;;;;;;;;;;;;;;;17.40;100.00;101082.25;5032225;28;20197;-72
2023/10/03 08:31:29;;;;;;;;;;;;;;;17.47;100.00;101096.03;5033547;28;19920;-73
2023/10/03 08:33:57;;;;;;;;;;;;;;;17.53;100.00;101098.13;5008276;28;19920;-72
2023/10/03 08:36:23;;;;;;;;;;;;;;;17.61;100.00;101116.31;5030280;28;20313;-71
2023/10/03 08:38:48;;;;;;;;;;;;;;;17.57;100.00;101093.22;5032023;28;20380;-72
2023/10/03 08:41:15;;;;;;;;;;;;;;;17.75;100.00;101109.44;5032632;28;19967;-76
2023/10/03 08:43:40;;;;;;;;;;;;;;;17.79;100.00;101106.25;5007739;28;20007;-73
2023/10/03 08:46:09;;;;;;;;;;;;;;;17.90;100.00;101129.56;5029028;28;19931;-74
2023/10/03 08:48:34;;;;;;;;;;;;;;;17.90;100.00;101131.44;5012632;28;19932;-73
2023/10/03 08:51:01;;;;;;;;;;;;;;;17.96;100.00;101138.94;5014347;28;19912;-74
2023/10/03 08:53:27;;;;;;;;;;;;;;;18.09;100.00;101135.81;5029085;28;19926;-76
2023/10/03 08:55:57;;;;;;;;;;;;;;;18.14;100.00;101147.91;5024515;28;19935;-75
2023/10/03 08:58:25;;;;;;;;;;;;;;;18.21;100.00;101145.38;5029044;28;20209;-76
2023/10/03 09:00:50;;;;;;;;;;;;;;;18.29;100.00;101142.72;5025342;28;20004;-74
2023/10/03 09:03:16;;;;;;;;;;;;;;;18.25;100.00;101176.66;5011478;28;20298;-77
2023/10/03 09:05:42;;;;;;;;;;;;;;;17.85;100.00;101191.69;5032592;28;19931;-75
2023/10/03 09:08:14;;;;;;;;;;;;;;;16.91;100.00;101201.97;5033418;28;20334;-73
2023/10/03 09:10:52;;;;;;;;;;;;;;;16.56;100.00;101217.16;5038181;28;19928;-74
2023/10/03 09:13:24;;;;;;;;;;;;;;;16.13;100.00;101227.59;5036019;28;20252;-74
2023/10/03 09:18:49;;;;;;;;;;;;;;;16.02;100.00;101218.63;5034857;28;20090;-75
2023/10/03 09:21:27;;;;;;;;;;;;;;;16.02;100.00;101220.50;5032997;28;19931;-77
2023/10/03 09:24:09;;;;;;;;;;;;;;;16.02;100.00;101223.19;5037036;28;19924;-76
2023/10/03 09:27:07;;;;;;;;;;;;;;;16.17;100.00;101224.44;5038846;28;19916;-74
2023/10/03 09:29:35;;;;;;;;;;;;;;;16.39;100.00;101235.91;5032866;28;19920;-72
2023/10/03 09:32:12;;;;;;;;;;;;;;;16.63;100.00;101229.97;5033420;28;20281;-80
2023/10/03 09:34:40;;;;;;;;;;;;;;;16.92;100.00;101247.09;5020095;28;19924;-75
2023/10/03 09:37:05;;;;;;;;;;;;;;;17.09;100.00;101253.59;5020698;28;20255;-73
2023/10/03 09:39:31;;;;;;;;;;;;;;;17.14;100.00;101248.56;5041503;28;19987;-77
2023/10/03 09:41:57;;;;;;;;;;;;;;;17.09;100.00;101267.97;5020313;28;19935;-76
2023/10/03 09:44:37;;;;;;;;;;;;;;;17.17;100.00;101275.38;5035111;28;20418;-74
2023/10/03 09:47:09;;;;;;;;;;;;;;;17.18;100.00;101279.81;5035353;28;20371;-73
2023/10/03 09:49:38;;;;;;;;;;;;;;;17.21;100.00;101278.63;5033604;28;20396;-75
2023/10/03 09:52:50;;;;;;;;;;;;;;;17.17;100.00;101279.94;5036162;28;20396;-76
2023/10/03 09:55:17;;;;;;;;;;;;;;;17.20;100.00;101276.94;5036555;28;20000;-73
2023/10/03 09:57:46;;;;;;;;;;;;;;;17.06;100.00;101276.47;5033927;28;20534;-74
2023/10/03 10:00:23;;;;;;;;;;;;;;;16.98;100.00;101280.91;5007494;28;19921;-74
2023/10/03 10:02:49;;;;;;;;;;;;;;;16.95;100.00;101287.47;5017054;28;20397;-76
2023/10/03 10:05:19;;;;;;;;;;;;;;;16.82;100.00;101289.69;5017737;28;19917;-75
2023/10/03 10:08:06;;;;;;;;;;;;;;;16.66;100.00;101303.88;5008011;28;19912;-75
2023/10/03 10:10:41;;;;;;;;;;;;;;;16.30;100.00;101320.78;5025227;28;19913;-80
2023/10/03 10:13:12;;;;;;;;;;;;;;;15.92;100.00;101317.13;5015595;28;19931;-79
2023/10/03 10:16:07;;;;;;;;;;;;;;;15.75;100.00;101309.53;5038181;28;20388;-74
2023/10/03 10:18:45;;;;;;;;;;;;;;;15.83;100.00;101311.53;5021546;28;19920;-80
2023/10/03 10:21:20;;;;;;;;;;;;;;;15.86;100.00;101318.56;5039370;28;19947;-75
2023/10/03 10:24:25;;;;;;;;;;;;;;;;;;;;;
2023/10/03 10:26:52;;;;;;;;;;;;;;;16.02;100.00;101334.25;5037977;28;19983;-72
2023/10/03 10:29:24;;;;;;;;;;;;;;;16.04;100.00;101353.88;5030903;28;20432;-71
2023/10/03 10:31:59;;;;;;;;;;;;;;;16.11;100.00;101367.72;5018843;28;19963;-81
2023/10/03 10:34:27;;;;;;;;;;;;;;;16.18;100.00;101366.13;5037422;28;20015;-74
2023/10/03 10:37:03;;;;;;;;;;;;;;;16.27;100.00;101359.03;5040636;28;20236;-75
2023/10/03 10:39:47;;;;;;;;;;;;;;;16.41;100.00;101363.97;5031246;28;19929;-74
2023/10/03 10:42:14;;;;;;;;;;;;;;;16.66;100.00;101358.09;5038580;28;19917;-75
2023/10/03 10:44:58;;;;;;;;;;;;;;;16.88;100.00;101373.13;5017541;28;20025;-77
2023/10/03 10:47:24;;;;;;;;;;;;;;;17.11;100.00;101375.50;5037451;28;19917;-77
2023/10/03 10:50:25;;;;;;;;;;;;;;;17.11;100.00;101380.91;5023633;28;19916;-75
2023/10/03 10:52:56;;;;;;;;;;;;;;;17.01;100.00;101378.25;5042920;28;19921;-75
2023/10/03 10:55:24;;;;;;;;;;;;;;;16.64;100.00;101405.19;5038293;28;19974;-72
2023/10/03 10:58:01;;;;;;;;;;;;;;;16.37;100.00;101407.78;5027008;28;19929;-72
2023/10/03 11:00:27;;;;;;;;;;;;;;;16.04;100.00;101398.09;5021310;28;20358;-75
2023/10/03 11:02:52;;;;;;;;;;;;;;;15.83;100.00;101403.59;5027644;28;20019;-75
2023/10/03 11:05:17;;;;;;;;;;;;;;;15.62;100.00;101409.13;5013928;28;20282;-73
2023/10/03 11:07:45;;;;;;;;;;;;;;;15.60;100.00;101405.69;5025850;28;20338;-74
2023/10/03 11:10:12;;;;;;;;;;;;;;;15.47;100.00;101429.44;5016516;28;19921;-75
2023/10/03 11:12:37;;;;;;;;;;;;;;;15.55;100.00;101426.91;5014642;28;20236;-72
2023/10/03 11:15:05;;;;;;;;;;;;;;;15.60;100.00;101422.78;5030888;28;20503;-74
2023/10/03 11:17:33;;;;;;;;;;;;;;;15.68;100.00;101430.19;5026097;28;19971;-75
2023/10/03 11:20:00;;;;;;;;;;;;;;;15.48;100.00;101433.84;5030860;28;19960;-73
2023/10/03 11:22:26;;;;;;;;;;;;;;;15.54;100.00;101436.00;5014092;28;19960;-74
2023/10/03 11:24:52;;;;;;;;;;;;;;;15.51;100.00;101437.13;5012365;28;19975;-75
2023/10/03 11:27:23;;;;;;;;;;;;;;;15.45;100.00;101437.69;5003714;28;20414;-73
2023/10/03 11:29:49;;;;;;;;;;;;;;;15.47;100.00;101441.13;5025968;28;20040;-74
2023/10/03 11:32:29;;;;;;;;;;;;;;;15.41;100.00;101436.25;5036233;28;20418;-74
2023/10/03 11:34:56;;;;;;;;;;;;;;;15.35;100.00;101447.63;5023352;28;19917;-71
2023/10/03 11:37:27;;;;;;;;;;;;;;;15.33;100.00;101436.94;5012521;28;19936;-72
2023/10/03 11:39:52;;;;;;;;;;;;;;;15.48;100.00;101444.69;5033455;28;20082;-72
2023/10/03 11:42:24;;;;;;;;;;;;;;;15.55;100.00;101449.38;5025391;28;20321;-72
2023/10/03 11:44:59;;;;;;;;;;;;;;;15.34;100.00;101462.13;5027416;28;20740;-75
2023/10/03 11:47:24;;;;;;;;;;;;;;;15.38;100.00;101463.56;5017220;28;20435;-74
2023/10/03 11:49:50;;;;;;;;;;;;;;;15.19;100.00;101470.63;5019755;28;19921;-74
2023/10/03 11:52:15;;;;;;;;;;;;;;;15.25;100.00;101486.28;5028489;28;19913;-73
2023/10/03 11:54:40;;;;;;;;;;;;;;;15.17;100.00;101494.25;5030670;28;19931;-73
2023/10/03 11:57:06;;;;;;;;;;;;;;;15.17;100.00;101501.47;5027954;28;19925;-73
2023/10/03 11:59:32;;;;;;;;;;;;;;;15.14;100.00;101502.63;5025628;28;19917;-72
2023/10/03 12:01:57;;;;;;;;;;;;;;;15.06;100.00;101510.53;5024886;28;19995;-71
2023/10/03 12:04:23;;;;;;;;;;;;;;;14.91;100.00;101504.59;5027409;28;19990;-71
2023/10/03 12:06:48;;;;;;;;;;;;;;;14.82;100.00;101512.53;5030543;28;19936;-72
2023/10/03 12:09:16;;;;;;;;;;;;;;;14.77;100.00;101524.69;5015327;28;20210;-73
2023/10/03 12:11:42;;;;;;;;;;;;;;;14.75;100.00;101527.53;5024983;28;19921;-72
2023/10/03 12:14:09;;;;;;;;;;;;;;;14.75;100.00;101538.34;5024121;28;19920;-72
2023/10/03 12:16:34;;;;;;;;;;;;;;;14.71;100.00;101547.69;5029094;28;20376;-72
2023/10/03 12:19:00;;;;;;;;;;;;;;;14.68;100.00;101559.66;5027917;28;19921;-74
2023/10/03 12:21:25;;;;;;;;;;;;;;;14.78;100.00;101573.25;5027892;28;19940;-74
2023/10/03 12:23:50;;;;;;;;;;;;;;;14.78;100.00;101573.25;5025942;28;19928;-71
2023/10/03 12:26:15;;;;;;;;;;;;;;;14.66;100.00;101576.91;5027193;28;19987;-75
2023/10/03 12:28:41;;;;;;;;;;;;;;;14.76;100.00;101579.75;5024493;28;20453;-74
2023/10/03 12:31:06;;;;;;;;;;;;;;;14.75;100.00;101572.63;5024811;28;20293;-72
2023/10/03 12:33:31;;;;;;;;;;;;;;;14.86;100.00;101583.41;5030276;28;19931;-74
2023/10/03 12:36:00;;;;;;;;;;;;;;;14.72;100.00;101584.56;5011401;28;19925;-72